sensor_id;sensor_type;location;lat;lon;timestamp;temperature;humidity
32895;DHT22;19251;49.484;8.260;2022-09-01T00:03:05;18.00;27.10
32895;DHT22;19251;49.484;8.260;2022-09-01T00:08:07;18.00;27.40
32895;DHT22;19251;49.484;8.260;2022-09-01T00:13:09;18.10;27.30
32895;DHT22;19251;49.484;8.260;2022-09-01T00:18:11;18.00;26.60
32895;DHT22;19251;49.484;8.260;2022-09-01T00:23:14;18.00;27.20
32895;DHT22;19251;49.484;8.260;2022-09-01T00:28:16;18.00;27.20
32895;DHT22;19251;49.484;8.260;2022-09-01T00:33:19;18.00;27.30
32895;DHT22;19251;49.484;8.260;2022-09-01T00:38:21;18.00;27.40
32895;DHT22;19251;49.484;8.260;2022-09-01T00:48:49;18.00;27.70
32895;DHT22;19251;49.484;8.260;2022-09-01T00:53:53;17.70;27.30
32895;DHT22;19251;49.484;8.260;2022-09-01T00:58:57;17.70;27.60
32895;DHT22;19251;49.484;8.260;2022-09-01T01:04:01;17.70;27.50
32895;DHT22;19251;49.484;8.260;2022-09-01T01:09:04;17.60;27.50
32895;DHT22;19251;49.484;8.260;2022-09-01T01:14:08;17.60;27.50
32895;DHT22;19251;49.484;8.260;2022-09-01T01:19:38;17.60;27.50
32895;DHT22;19251;49.484;8.260;2022-09-01T01:25:00;17.40;27.60
32895;DHT22;19251;49.484;8.260;2022-09-01T01:30:05;17.50;27.60
32895;DHT22;19251;49.484;8.260;2022-09-01T01:35:14;17.70;28.00
32895;DHT22;19251;49.484;8.260;2022-09-01T01:40:20;17.50;27.80
32895;DHT22;19251;49.484;8.260;2022-09-01T01:45:24;17.50;27.90
32895;DHT22;19251;49.484;8.260;2022-09-01T01:50:30;17.70;28.10
32895;DHT22;19251;49.484;8.260;2022-09-01T01:55:36;17.40;28.10
32895;DHT22;19251;49.484;8.260;2022-09-01T02:00:39;17.40;27.90
32895;DHT22;19251;49.484;8.260;2022-09-01T02:05:45;17.40;27.90
32895;DHT22;19251;49.484;8.260;2022-09-01T02:10:50;17.30;27.80
32895;DHT22;19251;49.484;8.260;2022-09-01T02:15:55;17.30;28.00
32895;DHT22;19251;49.484;8.260;2022-09-01T02:20:58;17.40;28.00
32895;DHT22;19251;49.484;8.260;2022-09-01T02:26:02;17.50;28.20
32895;DHT22;19251;49.484;8.260;2022-09-01T02:31:17;17.30;28.00
32895;DHT22;19251;49.484;8.260;2022-09-01T02:36:21;17.30;27.90
32895;DHT22;19251;49.484;8.260;2022-09-01T02:41:26;17.30;28.00
32895;DHT22;19251;49.484;8.260;2022-09-01T02:46:31;17.30;28.10
32895;DHT22;19251;49.484;8.260;2022-09-01T02:51:33;17.30;28.10
32895;DHT22;19251;49.484;8.260;2022-09-01T02:56:36;17.10;27.90
32895;DHT22;19251;49.484;8.260;2022-09-01T03:01:39;17.00;27.80
32895;DHT22;19251;49.484;8.260;2022-09-01T03:06:41;17.20;28.00
32895;DHT22;19251;49.484;8.260;2022-09-01T03:11:47;17.10;28.00
32895;DHT22;19251;49.484;8.260;2022-09-01T03:16:50;17.20;28.00
32895;DHT22;19251;49.484;8.260;2022-09-01T03:21:53;17.10;28.00
32895;DHT22;19251;49.484;8.260;2022-09-01T03:26:58;17.00;27.90
32895;DHT22;19251;49.484;8.260;2022-09-01T03:32:02;17.00;28.00
32895;DHT22;19251;49.484;8.260;2022-09-01T03:37:05;17.10;28.10
32895;DHT22;19251;49.484;8.260;2022-09-01T03:42:09;16.90;28.00
32895;DHT22;19251;49.484;8.260;2022-09-01T03:47:21;16.90;28.10
32895;DHT22;19251;49.484;8.260;2022-09-01T03:52:25;16.90;28.30
32895;DHT22;19251;49.484;8.260;2022-09-01T03:57:29;17.00;28.30
32895;DHT22;19251;49.484;8.260;2022-09-01T04:02:34;17.00;28.30
32895;DHT22;19251;49.484;8.260;2022-09-01T04:07:37;17.00;28.40
32895;DHT22;19251;49.484;8.260;2022-09-01T04:12:39;17.20;28.60
32895;DHT22;19251;49.484;8.260;2022-09-01T04:17:43;17.10;28.40
32895;DHT22;19251;49.484;8.260;2022-09-01T04:23:06;17.10;28.10
32895;DHT22;19251;49.484;8.260;2022-09-01T04:28:12;17.00;27.90
32895;DHT22;19251;49.484;8.260;2022-09-01T04:33:25;17.10;28.10
32895;DHT22;19251;49.484;8.260;2022-09-01T04:38:29;16.90;27.90
32895;DHT22;19251;49.484;8.260;2022-09-01T04:43:33;16.80;27.80
32895;DHT22;19251;49.484;8.260;2022-09-01T04:48:36;16.90;28.00
32895;DHT22;19251;49.484;8.260;2022-09-01T04:53:41;16.80;28.00
32895;DHT22;19251;49.484;8.260;2022-09-01T04:58:51;16.70;28.00
32895;DHT22;19251;49.484;8.260;2022-09-01T05:03:57;16.70;28.00
32895;DHT22;19251;49.484;8.260;2022-09-01T05:09:06;17.00;28.60
32895;DHT22;19251;49.484;8.260;2022-09-01T05:14:12;16.30;27.90
32895;DHT22;19251;49.484;8.260;2022-09-01T05:19:15;16.40;28.10
32895;DHT22;19251;49.484;8.260;2022-09-01T05:24:19;16.70;27.90
32895;DHT22;19251;49.484;8.260;2022-09-01T05:29:22;16.60;28.40
32895;DHT22;19251;49.484;8.260;2022-09-01T05:34:28;16.70;28.40
32895;DHT22;19251;49.484;8.260;2022-09-01T05:39:33;16.80;28.50
32895;DHT22;19251;49.484;8.260;2022-09-01T05:44:38;16.80;28.60
32895;DHT22;19251;49.484;8.260;2022-09-01T05:49:45;16.80;28.80
32895;DHT22;19251;49.484;8.260;2022-09-01T05:54:48;16.80;28.60
32895;DHT22;19251;49.484;8.260;2022-09-01T05:59:51;16.90;28.60
32895;DHT22;19251;49.484;8.260;2022-09-01T06:04:55;17.00;28.80
32895;DHT22;19251;49.484;8.260;2022-09-01T06:09:59;16.90;28.70
32895;DHT22;19251;49.484;8.260;2022-09-01T06:15:03;17.20;29.30
32895;DHT22;19251;49.484;8.260;2022-09-01T06:20:08;17.30;29.50
32895;DHT22;19251;49.484;8.260;2022-09-01T06:25:12;17.70;29.00
32895;DHT22;19251;49.484;8.260;2022-09-01T06:30:17;17.80;29.70
32895;DHT22;19251;49.484;8.260;2022-09-01T06:35:26;17.90;29.60
32895;DHT22;19251;49.484;8.260;2022-09-01T06:40:32;18.10;29.60
32895;DHT22;19251;49.484;8.260;2022-09-01T06:45:41;18.20;29.20
32895;DHT22;19251;49.484;8.260;2022-09-01T06:50:45;18.60;29.30
32895;DHT22;19251;49.484;8.260;2022-09-01T06:56:08;19.30;29.00
32895;DHT22;19251;49.484;8.260;2022-09-01T07:01:18;19.20;28.60
32895;DHT22;19251;49.484;8.260;2022-09-01T07:06:23;19.40;28.10
32895;DHT22;19251;49.484;8.260;2022-09-01T07:11:51;19.70;28.20
32895;DHT22;19251;49.484;8.260;2022-09-01T07:17:13;19.90;28.10
32895;DHT22;19251;49.484;8.260;2022-09-01T07:22:25;20.10;27.70
32895;DHT22;19251;49.484;8.260;2022-09-01T07:27:47;20.30;27.40
32895;DHT22;19251;49.484;8.260;2022-09-01T07:32:52;20.50;27.30
32895;DHT22;19251;49.484;8.260;2022-09-01T07:37:56;20.90;27.10
32895;DHT22;19251;49.484;8.260;2022-09-01T07:43:21;20.70;26.20
32895;DHT22;19251;49.484;8.260;2022-09-01T07:48:32;21.20;26.10
32895;DHT22;19251;49.484;8.260;2022-09-01T07:53:55;21.40;25.90
32895;DHT22;19251;49.484;8.260;2022-09-01T07:58:57;21.50;25.50
32895;DHT22;19251;49.484;8.260;2022-09-01T08:04:00;21.70;25.10
32895;DHT22;19251;49.484;8.260;2022-09-01T08:09:05;22.20;25.10
32895;DHT22;19251;49.484;8.260;2022-09-01T08:14:13;22.30;24.70
32895;DHT22;19251;49.484;8.260;2022-09-01T08:19:15;22.80;24.80
32895;DHT22;19251;49.484;8.260;2022-09-01T08:24:22;22.80;24.90
32895;DHT22;19251;49.484;8.260;2022-09-01T08:29:24;23.10;23.90
32895;DHT22;19251;49.484;8.260;2022-09-01T08:34:26;23.00;23.80
32895;DHT22;19251;49.484;8.260;2022-09-01T08:39:29;23.20;23.90
32895;DHT22;19251;49.484;8.260;2022-09-01T08:49:53;23.50;23.10
32895;DHT22;19251;49.484;8.260;2022-09-01T09:00:28;23.70;22.50
32895;DHT22;19251;49.484;8.260;2022-09-01T09:06:02;24.00;22.40
32895;DHT22;19251;49.484;8.260;2022-09-01T09:16:41;24.30;21.90
32895;DHT22;19251;49.484;8.260;2022-09-01T09:21:46;24.70;21.50
32895;DHT22;19251;49.484;8.260;2022-09-01T09:26:54;24.90;21.60
32895;DHT22;19251;49.484;8.260;2022-09-01T09:32:08;25.30;20.80
32895;DHT22;19251;49.484;8.260;2022-09-01T09:37:31;25.70;20.60
32895;DHT22;19251;49.484;8.260;2022-09-01T09:42:33;26.00;19.90
32895;DHT22;19251;49.484;8.260;2022-09-01T09:47:41;26.30;19.40
32895;DHT22;19251;49.484;8.260;2022-09-01T09:52:47;26.50;17.90
32895;DHT22;19251;49.484;8.260;2022-09-01T09:57:53;26.70;18.20
32895;DHT22;19251;49.484;8.260;2022-09-01T10:03:07;26.90;17.50
32895;DHT22;19251;49.484;8.260;2022-09-01T10:08:42;27.10;17.10
32895;DHT22;19251;49.484;8.260;2022-09-01T10:13:49;27.20;16.50
32895;DHT22;19251;49.484;8.260;2022-09-01T10:18:53;27.30;15.90
32895;DHT22;19251;49.484;8.260;2022-09-01T10:24:15;27.40;16.20
32895;DHT22;19251;49.484;8.260;2022-09-01T10:34:49;27.50;15.40
32895;DHT22;19251;49.484;8.260;2022-09-01T10:45:37;27.50;14.60
32895;DHT22;19251;49.484;8.260;2022-09-01T10:50:41;27.60;14.80
32895;DHT22;19251;49.484;8.260;2022-09-01T10:55:46;27.70;13.70
32895;DHT22;19251;49.484;8.260;2022-09-01T11:01:06;27.80;14.30
32895;DHT22;19251;49.484;8.260;2022-09-01T11:06:33;28.00;14.40
32895;DHT22;19251;49.484;8.260;2022-09-01T11:11:50;28.10;13.80
32895;DHT22;19251;49.484;8.260;2022-09-01T11:17:21;28.30;14.50
32895;DHT22;19251;49.484;8.260;2022-09-01T11:22:40;28.60;13.60
32895;DHT22;19251;49.484;8.260;2022-09-01T11:32:58;29.20;12.70
32895;DHT22;19251;49.484;8.260;2022-09-01T11:38:04;29.40;11.40
32895;DHT22;19251;49.484;8.260;2022-09-01T11:43:14;29.40;10.90
32895;DHT22;19251;49.484;8.260;2022-09-01T11:48:17;29.20;10.80
32895;DHT22;19251;49.484;8.260;2022-09-01T11:53:22;29.20;11.70
32895;DHT22;19251;49.484;8.260;2022-09-01T11:58:32;29.20;11.10
32895;DHT22;19251;49.484;8.260;2022-09-01T12:03:35;29.60;10.60
32895;DHT22;19251;49.484;8.260;2022-09-01T12:08:41;29.90;10.60
32895;DHT22;19251;49.484;8.260;2022-09-01T12:13:54;29.90;9.20
32895;DHT22;19251;49.484;8.260;2022-09-01T12:18:58;29.80;9.20
32895;DHT22;19251;49.484;8.260;2022-09-01T12:24:16;29.70;9.20
32895;DHT22;19251;49.484;8.260;2022-09-01T12:29:19;29.50;9.40
32895;DHT22;19251;49.484;8.260;2022-09-01T12:34:30;29.40;8.80
32895;DHT22;19251;49.484;8.260;2022-09-01T12:39:39;29.30;8.30
32895;DHT22;19251;49.484;8.260;2022-09-01T12:44:45;29.30;8.40
32895;DHT22;19251;49.484;8.260;2022-09-01T12:49:48;29.50;8.90
32895;DHT22;19251;49.484;8.260;2022-09-01T13:05:40;31.30;7.60
32895;DHT22;19251;49.484;8.260;2022-09-01T13:10:52;31.90;6.50
32895;DHT22;19251;49.484;8.260;2022-09-01T13:15:58;32.40;5.20
32895;DHT22;19251;49.484;8.260;2022-09-01T13:21:14;32.80;4.20
32895;DHT22;19251;49.484;8.260;2022-09-01T13:26:17;33.30;4.20
32895;DHT22;19251;49.484;8.260;2022-09-01T13:31:20;33.90;2.50
32895;DHT22;19251;49.484;8.260;2022-09-01T13:36:30;34.40;1.90
32895;DHT22;19251;49.484;8.260;2022-09-01T13:41:53;34.80;1.00
32895;DHT22;19251;49.484;8.260;2022-09-01T13:46:55;34.90;1.00
32895;DHT22;19251;49.484;8.260;2022-09-01T13:52:01;35.10;1.00
32895;DHT22;19251;49.484;8.260;2022-09-01T13:57:04;35.70;1.00
32895;DHT22;19251;49.484;8.260;2022-09-01T14:02:06;36.30;1.00
32895;DHT22;19251;49.484;8.260;2022-09-01T14:07:09;37.10;1.00
32895;DHT22;19251;49.484;8.260;2022-09-01T14:12:11;37.90;1.00
32895;DHT22;19251;49.484;8.260;2022-09-01T14:17:13;38.50;1.00
32895;DHT22;19251;49.484;8.260;2022-09-01T14:22:16;39.20;1.00
32895;DHT22;19251;49.484;8.260;2022-09-01T14:27:18;39.80;1.00
32895;DHT22;19251;49.484;8.260;2022-09-01T14:32:21;40.50;1.00
32895;DHT22;19251;49.484;8.260;2022-09-01T14:37:26;41.00;1.00
32895;DHT22;19251;49.484;8.260;2022-09-01T14:42:28;41.40;1.00
32895;DHT22;19251;49.484;8.260;2022-09-01T14:47:30;41.80;1.00
32895;DHT22;19251;49.484;8.260;2022-09-01T14:52:34;42.30;1.00
32895;DHT22;19251;49.484;8.260;2022-09-01T14:57:38;42.60;1.00
32895;DHT22;19251;49.484;8.260;2022-09-01T15:02:41;43.00;1.00
32895;DHT22;19251;49.484;8.260;2022-09-01T15:07:44;43.50;1.00
32895;DHT22;19251;49.484;8.260;2022-09-01T15:12:47;44.00;1.00
32895;DHT22;19251;49.484;8.260;2022-09-01T15:17:51;44.40;1.00
32895;DHT22;19251;49.484;8.260;2022-09-01T15:22:53;44.50;1.00
32895;DHT22;19251;49.484;8.260;2022-09-01T15:27:55;44.70;1.00
32895;DHT22;19251;49.484;8.260;2022-09-01T15:32:57;44.50;1.00
32895;DHT22;19251;49.484;8.260;2022-09-01T15:38:00;43.70;1.00
32895;DHT22;19251;49.484;8.260;2022-09-01T15:43:04;42.70;1.00
32895;DHT22;19251;49.484;8.260;2022-09-01T15:48:06;41.60;1.00
32895;DHT22;19251;49.484;8.260;2022-09-01T15:53:09;40.50;1.00
32895;DHT22;19251;49.484;8.260;2022-09-01T15:58:16;39.60;1.00
32895;DHT22;19251;49.484;8.260;2022-09-01T16:03:18;38.90;1.00
32895;DHT22;19251;49.484;8.260;2022-09-01T16:08:21;38.40;1.00
32895;DHT22;19251;49.484;8.260;2022-09-01T16:13:23;37.50;1.00
32895;DHT22;19251;49.484;8.260;2022-09-01T16:19:00;36.40;1.00
32895;DHT22;19251;49.484;8.260;2022-09-01T16:23:55;35.20;1.00
32895;DHT22;19251;49.484;8.260;2022-09-01T16:28:59;34.10;1.00
32895;DHT22;19251;49.484;8.260;2022-09-01T16:34:14;33.20;1.00
32895;DHT22;19251;49.484;8.260;2022-09-01T16:39:42;32.40;1.00
32895;DHT22;19251;49.484;8.260;2022-09-01T17:06:30;29.90;1.00
32895;DHT22;19251;49.484;8.260;2022-09-01T17:11:52;30.00;1.00
32895;DHT22;19251;49.484;8.260;2022-09-01T17:17:06;29.90;1.50
32895;DHT22;19251;49.484;8.260;2022-09-01T17:22:11;29.80;2.10
32895;DHT22;19251;49.484;8.260;2022-09-01T17:27:36;29.60;2.00
32895;DHT22;19251;49.484;8.260;2022-09-01T17:43:14;29.00;3.80
32895;DHT22;19251;49.484;8.260;2022-09-01T17:48:39;28.80;4.20
32895;DHT22;19251;49.484;8.260;2022-09-01T18:09:42;28.00;5.40
32895;DHT22;19251;49.484;8.260;2022-09-01T18:25:16;27.40;6.10
32895;DHT22;19251;49.484;8.260;2022-09-01T18:30:20;27.30;6.40
32895;DHT22;19251;49.484;8.260;2022-09-01T18:57:30;26.60;6.70
32895;DHT22;19251;49.484;8.260;2022-09-01T19:18:49;26.00;8.40
32895;DHT22;19251;49.484;8.260;2022-09-01T19:24:09;25.70;9.20
32895;DHT22;19251;49.484;8.260;2022-09-01T19:29:16;25.40;9.70
32895;DHT22;19251;49.484;8.260;2022-09-01T19:34:42;24.70;10.00
32895;DHT22;19251;49.484;8.260;2022-09-01T19:39:46;24.80;10.40
32895;DHT22;19251;49.484;8.260;2022-09-01T19:50:26;24.20;11.20
32895;DHT22;19251;49.484;8.260;2022-09-01T19:55:49;24.00;11.90
32895;DHT22;19251;49.484;8.260;2022-09-01T20:00:57;23.80;11.70
32895;DHT22;19251;49.484;8.260;2022-09-01T20:06:23;23.60;12.40
32895;DHT22;19251;49.484;8.260;2022-09-01T20:11:48;23.80;12.70
32895;DHT22;19251;49.484;8.260;2022-09-01T20:16:58;23.10;12.60
32895;DHT22;19251;49.484;8.260;2022-09-01T20:22:21;23.00;12.80
32895;DHT22;19251;49.484;8.260;2022-09-01T20:33:09;22.90;13.70
32895;DHT22;19251;49.484;8.260;2022-09-01T20:43:48;23.00;14.60
32895;DHT22;19251;49.484;8.260;2022-09-01T20:48:52;22.60;14.80
32895;DHT22;19251;49.484;8.260;2022-09-01T20:59:56;22.40;15.10
32895;DHT22;19251;49.484;8.260;2022-09-01T21:10:57;22.10;15.60
32895;DHT22;19251;49.484;8.260;2022-09-01T21:16:26;22.00;16.40
32895;DHT22;19251;49.484;8.260;2022-09-01T21:26:47;21.70;16.90
32895;DHT22;19251;49.484;8.260;2022-09-01T21:31:54;21.30;16.80
32895;DHT22;19251;49.484;8.260;2022-09-01T21:36:57;21.30;17.30
32895;DHT22;19251;49.484;8.260;2022-09-01T21:42:00;21.20;17.50
32895;DHT22;19251;49.484;8.260;2022-09-01T21:47:02;21.00;17.70
32895;DHT22;19251;49.484;8.260;2022-09-01T21:52:05;20.90;18.00
32895;DHT22;19251;49.484;8.260;2022-09-01T21:57:07;20.80;17.70
32895;DHT22;19251;49.484;8.260;2022-09-01T22:02:09;20.60;18.40
32895;DHT22;19251;49.484;8.260;2022-09-01T22:07:12;20.40;18.50
32895;DHT22;19251;49.484;8.260;2022-09-01T22:12:16;20.10;18.60
32895;DHT22;19251;49.484;8.260;2022-09-01T22:17:18;20.20;19.00
32895;DHT22;19251;49.484;8.260;2022-09-01T22:22:20;20.00;19.10
32895;DHT22;19251;49.484;8.260;2022-09-01T22:27:23;19.80;19.30
32895;DHT22;19251;49.484;8.260;2022-09-01T22:32:25;19.70;19.60
32895;DHT22;19251;49.484;8.260;2022-09-01T22:37:34;19.80;19.90
32895;DHT22;19251;49.484;8.260;2022-09-01T22:42:36;19.30;19.80
32895;DHT22;19251;49.484;8.260;2022-09-01T22:47:39;19.50;19.70
32895;DHT22;19251;49.484;8.260;2022-09-01T22:52:42;19.30;20.40
32895;DHT22;19251;49.484;8.260;2022-09-01T22:57:44;19.30;20.10
32895;DHT22;19251;49.484;8.260;2022-09-01T23:02:46;19.50;21.10
32895;DHT22;19251;49.484;8.260;2022-09-01T23:07:49;19.20;20.80
32895;DHT22;19251;49.484;8.260;2022-09-01T23:12:51;18.90;20.70
32895;DHT22;19251;49.484;8.260;2022-09-01T23:17:53;18.70;21.00
32895;DHT22;19251;49.484;8.260;2022-09-01T23:22:55;18.90;21.50
32895;DHT22;19251;49.484;8.260;2022-09-01T23:27:57;18.80;21.70
32895;DHT22;19251;49.484;8.260;2022-09-01T23:33:00;18.70;21.70
32895;DHT22;19251;49.484;8.260;2022-09-01T23:38:02;18.60;21.70
32895;DHT22;19251;49.484;8.260;2022-09-01T23:43:04;18.40;21.70
32895;DHT22;19251;49.484;8.260;2022-09-01T23:48:07;18.60;22.20
32895;DHT22;19251;49.484;8.260;2022-09-01T23:53:09;18.20;22.10
32895;DHT22;19251;49.484;8.260;2022-09-01T23:58:12;18.30;21.90
